Craig, CO (81625)

9:19 AM MDT on September 02, 2014 (GMT -0600)
Craig airport | Change Station
CLOSE
Current Station
Personal Weather Station
Location: Craig, CO
Elevation: 6207 ft
Nearby Weather Stations

Elev 6207 ft 40.49 °N, 107.51 °W | Updated 18 minutes ago

Clear
Clear
57.1 °F
Feels Like 57.1 °F
N
0.0
Wind Variable Wind from ENE
Gusts 0.0 mph

Today
High -- | Low -- °F
--% Chance of Precip.
Yesterday
High -- | Low -- °F
Precip. -- in
6:38 AM 7:40 PM
First Quarter, 52% visible
Pressure 30.12 in
Visibility 10.0 miles
Clouds Clear
Dew Point 45 °F
Humidity 63%
Rainfall -9999.00 in
Snow Depth Not available.
UV 2 out of 12
Pollen 9.20 out of 12
Air Quality Not available.
Flu Activity Not available.
METAR KCAG 021453Z AUTO 00000KT 10SM CLR 09/06 A3022 RMK AO2 SLP199 T00890056 51007

More Conditions Fewer Conditions

Pressure 30.12 in
Visibility 10.0 miles
Clouds Clear
Dew Point 45 °F
Humidity 63%
Rainfall -9999.00 in
Snow Depth Not available.
UV 2 out of 12
Pollen 9.20 out of 12
Air Quality Not available.
Flu Activity Not available.
METAR KCAG 021453Z AUTO 00000KT 10SM CLR 09/06 A3022 RMK AO2 SLP199 T00890056 51007

More Conditions Fewer Conditions

10-Day Weather Forecast

Almanac

Astronomy

Sep. 02, 2014 Rise Set
Actual Time 6:38 AM MDT 7:40 PM MDT
Civil Twilight 6:10 AM MDT 8:08 PM MDT
Nautical Twilight 5:37 AM MDT 8:41 PM MDT
Astronomical Twilight 5:02 AM MDT 9:16 PM MDT
Moon 2:27 PM MDT No Moon Set
Length of Visible Light 13h 57m
Length of Day
13h 02m
Tomorrow will be 2m 35s shorter.
First Quarter, 52% of the Moon is Illuminated
Today
First Quarter
Sep 8
Full
Sep 15
Last Quarter
Sep 24
New
Oct 1
First Quarter

Today's Extremes

State Highs State Lows

Community

WunderPhotos

Upload Photos

1,749,690 photos uploaded!

Nearby

Snow Depth

Station Depth Elevation
Ripple Creek 0 in 10340 ft
Elk River 0 in 8700 ft
Crosho 0 in 9100 ft
Dry Lake 0 in 8400 ft
Trapper Lake 0 in 9700 ft

Earthquake Activity

City Distance Mag. Time & Date
No recent earthquake activity has been reported nearby.
Minimum magnitude displayed is 2.5.

Coastal Water Temperatures

Place Temperature
No Stations Reporting

Nearby Weather Stations